Time;durP1;ratioP1;P1;durP2;ratioP2;P2;SDS_P1;SDS_P2;PMS_P1;PMS_P2;Temp;Humidity;BMP_temperature;BMP_pressure;BME280_temperature;BME280_humidity;BME280_pressure;Samples;Min_cycle;Max_cycle;Signal;HPM_P1;HPM_P2
2023/03/20 00:00:41;;;;;;;19.02;10.32;;;9.10;99.90;;;;;;5050072;28;20107;-35
2023/03/20 00:03:10;;;;;;;14.55;8.90;;;9.10;99.90;;;;;;5049737;28;20122;-35
2023/03/20 00:05:37;;;;;;;16.55;9.40;;;9.10;99.90;;;;;;5049827;28;20090;-35
2023/03/20 00:08:06;;;;;;;18.75;9.48;;;9.00;99.90;;;;;;5066505;28;20048;-35
2023/03/20 00:10:35;;;;;;;15.48;9.40;;;9.00;99.90;;;;;;5053068;28;20056;-36
2023/03/20 00:13:02;;;;;;;16.80;9.60;;;9.00;99.90;;;;;;5052472;28;20053;-35
2023/03/20 00:15:31;;;;;;;18.83;10.18;;;9.00;99.90;;;;;;5053328;28;20378;-35
2023/03/20 00:17:58;;;;;;;20.35;10.00;;;9.00;99.90;;;;;;5059061;28;20064;-36
2023/03/20 00:20:24;;;;;;;19.02;9.68;;;9.00;99.90;;;;;;5054442;28;20102;-35
2023/03/20 00:22:52;;;;;;;17.92;9.95;;;9.00;99.90;;;;;;5053817;28;20435;-35
2023/03/20 00:25:21;;;;;;;18.00;9.77;;;9.00;99.90;;;;;;5047594;28;20444;-36
2023/03/20 00:27:48;;;;;;;19.08;9.90;;;8.90;99.90;;;;;;5050943;28;20049;-36
2023/03/20 00:30:23;;;;;;;19.65;9.75;;;8.90;99.90;;;;;;5052416;28;20049;-35
2023/03/20 00:32:50;;;;;;;21.23;10.55;;;8.90;99.90;;;;;;5068190;28;20099;-35
2023/03/20 00:35:22;;;;;;;20.52;10.43;;;8.90;99.90;;;;;;5056675;28;20052;-35
2023/03/20 00:37:50;;;;;;;21.02;10.10;;;9.00;99.90;;;;;;5059326;28;20440;-35
2023/03/20 00:40:17;;;;;;;18.00;9.70;;;8.90;99.90;;;;;;5053302;28;20133;-35
2023/03/20 00:42:45;;;;;;;24.42;11.25;;;8.90;99.90;;;;;;5052290;28;20041;-35
2023/03/20 00:45:13;;;;;;;20.40;10.73;;;8.90;99.90;;;;;;5061035;28;20056;-35
2023/03/20 00:47:40;;;;;;;17.58;9.75;;;9.00;99.90;;;;;;5052848;28;20385;-35
2023/03/20 00:50:08;;;;;;;22.25;11.27;;;8.90;99.90;;;;;;5052287;28;20136;-36
2023/03/20 00:52:34;;;;;;;30.58;11.25;;;8.90;99.90;;;;;;5059430;28;20143;-35
2023/03/20 00:55:01;;;;;;;24.33;11.07;;;9.00;99.90;;;;;;5052520;28;20069;-35
2023/03/20 00:57:29;;;;;;;25.80;10.93;;;8.90;99.90;;;;;;5068921;28;20098;-35
2023/03/20 00:59:59;;;;;;;25.85;11.35;;;8.90;99.90;;;;;;5053377;28;20084;-36
2023/03/20 01:02:27;;;;;;;27.20;9.88;;;8.90;99.90;;;;;;5052947;28;20085;-34
2023/03/20 01:04:54;;;;;;;30.48;11.10;;;8.90;99.90;;;;;;5051907;28;20052;-35
2023/03/20 01:07:21;;;;;;;20.52;10.07;;;8.90;99.90;;;;;;5036780;28;20073;-35
2023/03/20 01:09:48;;;;;;;25.65;10.75;;;8.90;99.90;;;;;;5043157;28;20460;-35
2023/03/20 01:12:15;;;;;;;21.45;9.75;;;8.90;99.90;;;;;;5046351;28;20504;-35
2023/03/20 01:14:42;;;;;;;23.25;8.95;;;8.90;99.90;;;;;;5058439;28;20102;-35
2023/03/20 01:17:11;;;;;;;27.25;9.20;;;8.90;99.90;;;;;;5053173;28;20197;-35
2023/03/20 01:19:38;;;;;;;19.60;8.63;;;8.90;99.90;;;;;;5053322;28;20049;-35
2023/03/20 01:22:05;;;;;;;20.50;8.65;;;8.90;99.90;;;;;;5050283;28;20045;-35
2023/03/20 01:24:32;;;;;;;19.35;8.52;;;8.80;99.90;;;;;;5052785;28;20508;-35
2023/03/20 01:27:02;;;;;;;19.70;8.25;;;8.80;99.90;;;;;;5051707;28;20040;-35
2023/03/20 01:29:29;;;;;;;20.25;8.07;;;8.80;99.90;;;;;;5051328;28;20502;-35
2023/03/20 01:31:56;;;;;;;17.20;7.60;;;8.80;99.90;;;;;;5050493;28;20045;-35
2023/03/20 01:34:24;;;;;;;17.75;7.20;;;8.80;99.90;;;;;;5061373;28;20559;-35
2023/03/20 01:36:51;;;;;;;18.05;8.25;;;8.80;99.90;;;;;;5053013;28;20187;-35
2023/03/20 01:39:20;;;;;;;20.30;7.93;;;8.80;99.90;;;;;;5067950;28;20056;-35
2023/03/20 01:41:47;;;;;;;20.27;8.00;;;8.80;99.90;;;;;;5049244;28;20132;-35
2023/03/20 01:44:19;;;;;;;21.83;8.07;;;8.70;99.90;;;;;;5053817;28;20132;-35
2023/03/20 01:46:45;;;;;;;17.95;8.52;;;8.70;99.90;;;;;;5050455;28;20090;-35
2023/03/20 01:49:50;;;;;;;23.08;9.02;;;8.70;99.90;;;;;;5052684;28;20049;-35
2023/03/20 01:52:18;;;;;;;22.48;8.98;;;8.70;99.90;;;;;;5035029;28;20049;-35
2023/03/20 01:54:45;;;;;;;20.77;9.65;;;8.70;99.90;;;;;;5049691;28;20076;-35
2023/03/20 01:57:13;;;;;;;18.65;9.80;;;8.70;99.90;;;;;;5052507;28;20081;-35
2023/03/20 01:59:41;;;;;;;26.70;11.68;;;8.70;99.90;;;;;;5050932;28;20053;-36
2023/03/20 02:02:08;;;;;;;20.63;11.40;;;8.70;99.90;;;;;;5048122;28;20049;-39
2023/03/20 02:04:37;;;;;;;24.02;11.65;;;8.70;99.90;;;;;;5058354;28;20553;-36
2023/03/20 02:07:04;;;;;;;27.40;12.20;;;8.70;99.90;;;;;;5050065;28;20408;-35
2023/03/20 02:09:32;;;;;;;22.80;11.68;;;8.70;99.90;;;;;;5050912;28;20051;-36
2023/03/20 02:11:59;;;;;;;25.95;12.50;;;8.70;99.90;;;;;;5049385;28;20136;-35
2023/03/20 02:14:26;;;;;;;30.88;13.57;;;8.70;99.90;;;;;;5059194;28;20106;-35
2023/03/20 02:16:53;;;;;;;28.08;13.57;;;8.70;99.90;;;;;;5057043;28;20049;-35
2023/03/20 02:19:22;;;;;;;24.00;12.88;;;8.70;99.90;;;;;;5050684;28;20091;-36
2023/03/20 02:22:21;;;;;;;29.52;14.02;;;8.70;99.90;;;;;;5050105;28;20053;-35
2023/03/20 02:25:15;;;;;;;27.30;13.00;;;8.70;99.90;;;;;;5036812;28;20084;-35
2023/03/20 02:27:44;;;;;;;26.00;12.75;;;8.70;99.90;;;;;;5050253;28;20087;-35
2023/03/20 02:30:23;;;;;;;25.35;12.05;;;8.60;99.90;;;;;;5051279;28;20045;-35
2023/03/20 02:33:14;;;;;;;26.98;12.85;;;8.60;99.90;;;;;;5049269;28;20080;-35
2023/03/20 02:36:15;;;;;;;25.45;11.38;;;8.60;99.90;;;;;;5058065;28;20159;-35
2023/03/20 02:38:53;;;;;;;28.00;12.38;;;8.60;99.90;;;;;;5051210;28;20060;-35
2023/03/20 02:41:23;;;;;;;25.52;12.73;;;8.60;99.90;;;;;;5038137;28;20047;-36
2023/03/20 02:43:53;;;;;;;27.00;12.52;;;8.60;99.90;;;;;;5065590;28;20084;-35
2023/03/20 02:46:24;;;;;;;26.13;12.95;;;8.60;99.90;;;;;;5051244;28;20060;-36
2023/03/20 02:48:54;;;;;;;26.20;12.50;;;8.60;99.90;;;;;;5050673;28;20090;-35
2023/03/20 02:51:23;;;;;;;24.92;12.35;;;8.60;99.90;;;;;;5054776;28;20052;-35
2023/03/20 02:53:54;;;;;;;28.45;12.95;;;8.60;99.90;;;;;;5059580;28;20044;-35
2023/03/20 02:56:24;;;;;;;27.67;13.35;;;8.60;99.90;;;;;;5050402;28;20063;-35
2023/03/20 02:58:52;;;;;;;29.55;12.65;;;8.60;99.90;;;;;;5055609;28;20072;-35
2023/03/20 03:01:21;;;;;;;28.95;13.35;;;8.60;99.90;;;;;;5050378;28;20412;-35
2023/03/20 03:03:50;;;;;;;25.02;12.52;;;8.70;99.90;;;;;;5050292;28;20494;-35
2023/03/20 03:06:18;;;;;;;28.25;13.50;;;8.60;99.90;;;;;;5051144;28;20055;-35
2023/03/20 03:08:48;;;;;;;24.70;12.35;;;8.60;99.90;;;;;;5049303;28;20045;-35
2023/03/20 03:11:16;;;;;;;28.00;12.23;;;8.60;99.90;;;;;;5051619;28;20189;-34
2023/03/20 03:13:46;;;;;;;27.35;14.05;;;8.60;99.90;;;;;;5052519;28;20055;-35
2023/03/20 03:16:15;;;;;;;22.88;13.02;;;8.60;99.90;;;;;;5071656;28;20370;-35
2023/03/20 03:18:42;;;;;;;26.73;14.07;;;8.50;99.90;;;;;;5052079;28;20056;-35
2023/03/20 03:21:09;;;;;;;23.27;12.77;;;8.60;99.90;;;;;;5048811;28;20049;-35
2023/03/20 03:23:40;;;;;;;24.65;13.82;;;8.50;99.90;;;;;;5046077;28;20095;-35
2023/03/20 03:26:07;;;;;;;24.55;13.80;;;8.60;99.90;;;;;;5040125;28;20488;-35
2023/03/20 03:28:37;;;;;;;30.27;14.02;;;8.50;99.90;;;;;;5048201;28;20353;-34
2023/03/20 03:31:05;;;;;;;28.85;13.88;;;8.50;99.90;;;;;;5050091;28;20057;-35
2023/03/20 03:33:33;;;;;;;25.55;13.73;;;8.50;99.90;;;;;;5050228;28;20136;-35
2023/03/20 03:36:03;;;;;;;24.55;14.05;;;8.50;99.90;;;;;;5049823;28;20102;-34
2023/03/20 03:38:31;;;;;;;24.70;13.85;;;8.50;99.90;;;;;;5045965;28;20049;-34
2023/03/20 03:41:06;;;;;;;23.00;13.65;;;8.50;99.90;;;;;;5048181;28;20122;-34
2023/03/20 03:43:35;;;;;;;23.30;12.63;;;8.50;99.90;;;;;;5050834;28;20459;-34
2023/03/20 03:46:04;;;;;;;27.45;13.40;;;8.50;99.90;;;;;;5053084;28;20127;-34
2023/03/20 03:48:32;;;;;;;22.23;12.52;;;8.50;99.90;;;;;;5052942;28;20056;-35
2023/03/20 03:51:01;;;;;;;23.15;12.45;;;8.50;99.90;;;;;;5054001;28;20110;-34
2023/03/20 03:53:31;;;;;;;21.58;12.63;;;8.50;99.90;;;;;;5051586;28;20480;-35
2023/03/20 03:55:59;;;;;;;20.33;11.65;;;8.50;99.90;;;;;;5050304;28;20061;-34
2023/03/20 03:58:28;;;;;;;21.85;11.93;;;8.50;99.90;;;;;;5052335;28;20044;-34
2023/03/20 04:00:56;;;;;;;18.13;10.43;;;8.50;99.90;;;;;;5053297;28;20053;-35
2023/03/20 04:03:24;;;;;;;22.60;10.18;;;8.50;99.90;;;;;;5056609;28;20080;-35
2023/03/20 04:05:51;;;;;;;24.40;10.95;;;8.50;99.90;;;;;;5050593;28;20135;-34
2023/03/20 04:08:18;;;;;;;19.45;10.20;;;8.50;99.90;;;;;;5057413;28;20097;-35
2023/03/20 04:10:45;;;;;;;20.83;9.77;;;8.50;99.90;;;;;;5049978;28;20052;-35
2023/03/20 04:13:12;;;;;;;19.20;9.75;;;8.40;99.90;;;;;;5052587;28;20053;-35
2023/03/20 04:15:39;;;;;;;17.15;8.95;;;8.40;99.90;;;;;;5054997;28;20057;-35
2023/03/20 04:18:07;;;;;;;18.38;8.73;;;8.40;99.90;;;;;;5062580;28;20060;-35
2023/03/20 04:20:34;;;;;;;17.52;8.95;;;8.40;99.90;;;;;;5051859;28;20053;-35
2023/03/20 04:23:01;;;;;;;21.85;9.45;;;8.40;99.90;;;;;;5052849;28;20095;-35
2023/03/20 04:25:28;;;;;;;20.45;8.95;;;8.40;99.90;;;;;;5054147;28;20511;-35
2023/03/20 04:27:55;;;;;;;16.85;8.23;;;8.40;99.90;;;;;;5043540;28;20065;-34
2023/03/20 04:30:21;;;;;;;20.50;8.27;;;8.40;99.90;;;;;;5051234;28;20061;-35
2023/03/20 04:32:48;;;;;;;16.90;8.68;;;8.40;99.90;;;;;;5053052;28;20088;-35
2023/03/20 04:35:17;;;;;;;16.55;7.97;;;8.40;99.90;;;;;;5052342;28;20128;-35
2023/03/20 04:37:43;;;;;;;15.63;7.53;;;8.30;99.90;;;;;;5038303;28;20451;-36
2023/03/20 04:40:11;;;;;;;15.68;7.88;;;8.30;99.90;;;;;;5052139;28;20053;-35
2023/03/20 04:42:38;;;;;;;16.40;7.85;;;8.30;99.90;;;;;;5057262;28;20127;-36
2023/03/20 04:45:10;;;;;;;17.25;8.48;;;8.30;99.90;;;;;;5053602;28;20045;-36
2023/03/20 04:47:37;;;;;;;18.92;8.65;;;8.30;99.90;;;;;;5052011;28;20111;-35
2023/03/20 04:50:05;;;;;;;13.35;7.93;;;8.30;99.90;;;;;;5053087;28;20057;-35
2023/03/20 04:52:33;;;;;;;19.63;8.70;;;8.30;99.90;;;;;;5053638;28;20102;-35
2023/03/20 04:55:00;;;;;;;17.35;9.02;;;8.30;99.90;;;;;;5049970;28;20608;-35
2023/03/20 04:57:27;;;;;;;15.98;9.07;;;8.20;99.90;;;;;;5054299;28;20056;-35
2023/03/20 04:59:54;;;;;;;18.35;9.18;;;8.30;99.90;;;;;;5058547;28;20389;-35
2023/03/20 05:02:20;;;;;;;22.15;9.45;;;8.30;99.90;;;;;;5050360;28;20483;-35
2023/03/20 05:04:47;;;;;;;17.80;9.88;;;8.30;99.90;;;;;;5048870;28;20177;-34
2023/03/20 05:07:14;;;;;;;22.80;10.27;;;8.20;99.90;;;;;;5043039;28;20088;-34
2023/03/20 05:09:43;;;;;;;18.77;9.48;;;8.20;99.90;;;;;;5053033;28;20095;-35
2023/03/20 05:12:10;;;;;;;22.40;10.80;;;8.20;99.90;;;;;;5044886;28;20065;-36
2023/03/20 05:14:36;;;;;;;24.20;10.85;;;8.20;99.90;;;;;;5054274;28;20409;-36
2023/03/20 05:17:03;;;;;;;21.65;11.02;;;8.20;99.90;;;;;;5040771;28;20048;-35
2023/03/20 05:19:30;;;;;;;23.75;11.45;;;8.20;99.90;;;;;;5049325;28;20053;-35
2023/03/20 05:21:57;;;;;;;17.85;11.40;;;8.20;99.90;;;;;;5051037;28;20080;-36
2023/03/20 05:24:24;;;;;;;23.35;11.95;;;8.20;99.90;;;;;;5066120;28;20037;-35
2023/03/20 05:26:52;;;;;;;21.40;11.55;;;8.20;99.90;;;;;;5047743;28;20049;-35
2023/03/20 05:29:19;;;;;;;23.58;11.73;;;8.10;99.90;;;;;;5052992;28;20126;-36
2023/03/20 05:31:46;;;;;;;18.42;11.30;;;8.10;99.90;;;;;;5051112;28;20037;-35
2023/03/20 05:34:13;;;;;;;19.42;12.45;;;8.10;99.90;;;;;;5051867;28;20045;-35
2023/03/20 05:36:40;;;;;;;19.73;11.98;;;8.10;99.90;;;;;;5051229;28;20107;-35
2023/03/20 05:39:07;;;;;;;24.42;12.02;;;8.20;99.90;;;;;;5060599;28;20053;-35
2023/03/20 05:41:33;;;;;;;23.33;11.93;;;8.10;99.90;;;;;;5050224;28;20099;-36
2023/03/20 05:44:01;;;;;;;23.48;12.68;;;8.10;99.90;;;;;;5051316;28;20077;-35
2023/03/20 05:46:28;;;;;;;25.52;13.10;;;8.10;99.90;;;;;;5041405;28;20098;-36
2023/03/20 05:48:55;;;;;;;20.98;11.77;;;8.20;99.90;;;;;;5051053;28;20159;-35
2023/03/20 05:51:22;;;;;;;20.77;12.15;;;8.10;99.90;;;;;;5051582;28;20408;-36
2023/03/20 05:53:49;;;;;;;22.13;12.40;;;8.10;99.90;;;;;;5051618;28;20088;-35
2023/03/20 05:56:15;;;;;;;20.38;12.23;;;8.10;99.90;;;;;;5051116;28;20041;-35
2023/03/20 05:58:42;;;;;;;21.38;12.85;;;8.10;99.90;;;;;;5051265;28;20409;-35
2023/03/20 06:01:10;;;;;;;19.90;12.32;;;8.10;99.90;;;;;;5056402;28;20064;-35
2023/03/20 06:03:37;;;;;;;23.38;12.88;;;8.10;99.90;;;;;;5046359;28;20084;-35
2023/03/20 06:06:05;;;;;;;24.08;12.18;;;8.10;99.90;;;;;;5050451;28;20049;-35
2023/03/20 06:08:31;;;;;;;21.45;11.90;;;8.10;99.90;;;;;;5052956;28;20057;-35
2023/03/20 06:10:58;;;;;;;21.98;12.30;;;8.10;99.90;;;;;;5047746;28;20565;-35
2023/03/20 06:13:25;;;;;;;19.75;13.00;;;8.10;99.90;;;;;;5056633;28;20068;-35
2023/03/20 06:15:52;;;;;;;23.38;12.32;;;8.10;99.90;;;;;;5049193;28;20094;-35
2023/03/20 06:18:20;;;;;;;22.10;12.02;;;8.10;99.90;;;;;;5052450;28;20106;-36
2023/03/20 06:20:48;;;;;;;20.15;12.02;;;8.10;99.90;;;;;;5043703;28;20116;-36
2023/03/20 06:23:15;;;;;;;20.80;12.18;;;8.10;99.90;;;;;;5048684;28;20412;-35
2023/03/20 06:25:42;;;;;;;21.42;11.73;;;8.10;99.90;;;;;;5056540;28;20079;-36
2023/03/20 06:28:09;;;;;;;20.48;13.18;;;8.10;99.90;;;;;;5051391;28;20052;-35
2023/03/20 06:30:36;;;;;;;26.10;12.35;;;8.20;99.90;;;;;;5053598;28;20106;-35
2023/03/20 06:33:03;;;;;;;20.77;11.40;;;8.20;99.90;;;;;;5048562;28;20049;-35
2023/03/20 06:35:32;;;;;;;19.15;12.27;;;8.20;99.90;;;;;;5057866;28;20049;-36
2023/03/20 06:37:59;;;;;;;23.88;12.35;;;8.20;99.90;;;;;;5047829;28;20054;-35
2023/03/20 06:40:27;;;;;;;19.98;12.38;;;8.20;99.90;;;;;;5045014;28;20056;-35
2023/03/20 06:42:53;;;;;;;25.30;13.25;;;8.20;99.90;;;;;;5050905;28;20051;-35
2023/03/20 06:45:20;;;;;;;24.48;12.68;;;8.20;99.90;;;;;;5054292;28;20049;-35
2023/03/20 06:47:47;;;;;;;22.67;12.52;;;8.20;99.90;;;;;;5049263;28;20076;-35
2023/03/20 06:50:14;;;;;;;20.90;13.00;;;8.30;99.90;;;;;;5049958;28;20134;-35
2023/03/20 06:52:43;;;;;;;23.75;11.60;;;8.30;99.90;;;;;;5047419;28;20198;-35
2023/03/20 06:55:10;;;;;;;24.75;13.30;;;8.30;99.90;;;;;;5047036;28;20052;-36
2023/03/20 06:57:37;;;;;;;23.48;11.40;;;8.30;99.90;;;;;;5050160;28;20459;-35
2023/03/20 07:00:04;;;;;;;22.55;12.70;;;8.30;99.90;;;;;;5049834;28;20048;-35
2023/03/20 07:02:31;;;;;;;20.17;11.73;;;8.40;99.90;;;;;;5055584;28;20060;-35
2023/03/20 07:04:58;;;;;;;24.27;12.45;;;8.40;99.90;;;;;;5047950;28;20053;-35
2023/03/20 07:07:24;;;;;;;22.27;12.45;;;8.40;99.90;;;;;;5039070;28;20079;-35
2023/03/20 07:09:53;;;;;;;22.83;11.55;;;8.40;99.90;;;;;;5025315;28;20046;-36
2023/03/20 07:12:20;;;;;;;22.98;12.05;;;8.40;99.90;;;;;;5045731;28;20068;-36
2023/03/20 07:14:47;;;;;;;23.60;12.55;;;8.50;99.90;;;;;;5048119;28;20696;-35
2023/03/20 07:17:13;;;;;;;20.70;11.48;;;8.50;99.90;;;;;;5046964;28;20056;-35
2023/03/20 07:19:40;;;;;;;27.48;12.63;;;8.50;99.90;;;;;;5049974;28;20049;-35
2023/03/20 07:22:08;;;;;;;23.60;12.07;;;8.50;99.90;;;;;;5048555;28;20066;-36
2023/03/20 07:24:35;;;;;;;17.80;11.82;;;8.50;99.90;;;;;;5048335;28;20044;-35
2023/03/20 07:27:03;;;;;;;21.63;12.00;;;8.50;99.90;;;;;;5048384;28;20084;-36
2023/03/20 07:29:30;;;;;;;26.27;15.13;;;8.50;99.90;;;;;;5029053;28;20713;-35
2023/03/20 07:31:59;;;;;;;27.42;16.23;;;8.60;99.90;;;;;;5048658;28;20106;-35
2023/03/20 07:34:26;;;;;;;29.50;13.85;;;8.60;99.90;;;;;;5049414;28;20551;-35
2023/03/20 07:36:53;;;;;;;26.92;13.25;;;8.60;99.90;;;;;;5047897;28;20145;-35
2023/03/20 07:39:20;;;;;;;27.80;13.30;;;8.70;99.90;;;;;;5047443;28;20384;-36
2023/03/20 07:41:47;;;;;;;29.75;13.68;;;8.70;99.90;;;;;;5055132;28;20047;-36
2023/03/20 07:44:18;;;;;;;30.48;13.95;;;8.70;99.90;;;;;;5049253;28;20084;-35
2023/03/20 07:46:45;;;;;;;26.13;12.98;;;8.80;99.90;;;;;;5047502;28;20045;-35
2023/03/20 07:49:12;;;;;;;26.73;12.90;;;8.80;99.90;;;;;;5047976;28;20045;-35
2023/03/20 07:51:39;;;;;;;26.17;13.02;;;8.80;99.90;;;;;;5047951;28;20378;-35
2023/03/20 07:54:06;;;;;;;23.42;12.85;;;8.80;99.90;;;;;;5047349;28;20408;-35
2023/03/20 07:56:33;;;;;;;21.77;12.80;;;8.90;99.90;;;;;;5048313;28;20056;-36
2023/03/20 07:59:00;;;;;;;26.85;12.90;;;8.90;99.90;;;;;;5048744;28;20052;-36
2023/03/20 08:01:28;;;;;;;25.08;12.43;;;9.00;99.90;;;;;;5060015;28;20048;-35
2023/03/20 08:03:55;;;;;;;22.15;12.32;;;8.90;99.90;;;;;;5060242;28;20058;-36
2023/03/20 08:06:22;;;;;;;25.10;12.75;;;9.00;99.90;;;;;;5045836;28;20128;-35
2023/03/20 08:08:51;;;;;;;27.15;12.80;;;9.10;99.90;;;;;;5047625;28;20044;-35
2023/03/20 08:11:18;;;;;;;27.25;13.20;;;9.10;99.90;;;;;;5048844;28;20053;-35
2023/03/20 08:13:44;;;;;;;29.92;13.55;;;9.20;99.90;;;;;;5048540;28;20053;-35
2023/03/20 08:16:11;;;;;;;29.85;12.63;;;9.20;99.90;;;;;;5048937;28;20049;-36
2023/03/20 08:18:39;;;;;;;21.27;12.55;;;9.20;99.90;;;;;;5050021;28;20287;-38
2023/03/20 08:21:07;;;;;;;26.55;12.98;;;9.20;99.90;;;;;;5060465;28;20372;-36
2023/03/20 08:23:33;;;;;;;22.77;12.48;;;9.30;99.90;;;;;;5062192;28;20037;-35
2023/03/20 08:26:00;;;;;;;24.65;13.57;;;9.30;99.90;;;;;;5050546;28;20095;-35
2023/03/20 08:28:27;;;;;;;23.50;12.82;;;9.30;99.90;;;;;;5048189;28;20102;-35
2023/03/20 08:30:54;;;;;;;21.38;12.18;;;9.50;99.90;;;;;;5050525;28;20061;-35
2023/03/20 08:33:21;;;;;;;27.80;13.02;;;9.50;99.90;;;;;;5050684;28;20049;-35
2023/03/20 08:35:56;;;;;;;23.15;12.27;;;9.60;99.90;;;;;;5053422;28;20069;-35
2023/03/20 08:38:23;;;;;;;25.60;12.88;;;9.60;99.90;;;;;;5052059;28;20052;-35
2023/03/20 08:40:50;;;;;;;21.42;12.85;;;9.70;99.90;;;;;;5052593;28;20133;-35
2023/03/20 08:43:17;;;;;;;20.90;12.63;;;9.80;99.90;;;;;;5051780;28;20094;-35
2023/03/20 08:45:44;;;;;;;26.33;13.82;;;9.90;99.90;;;;;;5051367;28;20083;-35
2023/03/20 08:48:11;;;;;;;26.75;13.13;;;9.90;99.90;;;;;;5050904;28;20052;-34
2023/03/20 08:50:37;;;;;;;22.33;12.38;;;10.00;99.90;;;;;;5047968;28;20124;-35
2023/03/20 08:53:06;;;;;;;22.73;11.73;;;10.10;99.90;;;;;;5063493;28;20052;-35
2023/03/20 08:55:33;;;;;;;24.92;12.32;;;10.20;99.90;;;;;;5071542;28;20059;-34
2023/03/20 08:57:59;;;;;;;22.83;13.15;;;10.30;99.90;;;;;;5071717;28;20094;-35
2023/03/20 09:00:27;;;;;;;22.55;12.80;;;10.40;99.90;;;;;;5072541;28;20053;-34
2023/03/20 09:02:53;;;;;;;24.58;12.43;;;10.50;99.90;;;;;;5051814;28;20053;-34
2023/03/20 09:05:20;;;;;;;20.90;12.07;;;10.50;99.90;;;;;;5052646;28;20451;-34
2023/03/20 09:07:47;;;;;;;21.90;11.05;;;10.60;99.90;;;;;;5052756;28;20044;-34
2023/03/20 09:10:15;;;;;;;21.75;11.38;;;10.60;99.90;;;;;;5052185;28;20041;-35
2023/03/20 09:12:42;;;;;;;23.13;10.98;;;10.60;99.90;;;;;;5052298;28;20063;-35
2023/03/20 09:15:10;;;;;;;18.88;11.07;;;10.70;99.90;;;;;;5052284;28;20264;-34
2023/03/20 09:17:37;;;;;;;22.10;10.55;;;10.70;99.90;;;;;;5050714;28;20055;-34
2023/03/20 09:20:05;;;;;;;22.08;10.65;;;10.80;99.90;;;;;;5050476;28;20473;-34
2023/03/20 09:22:32;;;;;;;20.95;10.60;;;10.80;99.90;;;;;;5068778;28;20048;-34
2023/03/20 09:24:59;;;;;;;18.48;10.02;;;10.90;99.90;;;;;;5069700;28;20049;-35
2023/03/20 09:27:27;;;;;;;21.35;10.25;;;11.00;99.90;;;;;;5071164;28;20051;-35
2023/03/20 09:29:54;;;;;;;17.48;10.40;;;11.20;99.90;;;;;;5050447;28;20345;-35
2023/03/20 09:32:21;;;;;;;20.33;10.35;;;11.30;99.90;;;;;;5069591;28;20101;-35
2023/03/20 09:34:47;;;;;;;17.30;9.82;;;11.30;99.90;;;;;;5069366;28;20056;-36
2023/03/20 09:37:14;;;;;;;21.90;10.45;;;11.30;99.90;;;;;;5071031;28;20052;-35
2023/03/20 09:39:41;;;;;;;18.95;9.27;;;11.30;99.90;;;;;;5054946;28;20128;-35
2023/03/20 09:42:14;;;;;;;16.42;10.00;;;11.40;99.90;;;;;;5071698;28;20457;-35
2023/03/20 09:44:48;;;;;;;24.30;9.85;;;11.40;99.90;;;;;;5071629;28;20333;-35
2023/03/20 09:47:18;;;;;;;19.98;10.15;;;11.40;99.90;;;;;;5071813;28;20454;-34
2023/03/20 09:49:48;;;;;;;15.98;9.18;;;11.50;99.90;;;;;;5053916;28;20550;-34
2023/03/20 09:52:22;;;;;;;20.30;9.93;;;11.60;99.90;;;;;;5050388;28;20052;-35
2023/03/20 09:54:50;;;;;;;19.00;9.68;;;11.70;99.90;;;;;;5065611;28;20061;-35
2023/03/20 09:57:19;;;;;;;20.83;9.65;;;11.80;99.90;;;;;;5071287;28;20052;-34
2023/03/20 09:59:48;;;;;;;18.63;9.50;;;11.90;99.90;;;;;;5051904;28;20389;-36
2023/03/20 10:02:18;;;;;;;18.63;10.35;;;11.90;99.90;;;;;;5044685;28;20126;-35
2023/03/20 10:04:47;;;;;;;19.42;10.13;;;11.90;99.90;;;;;;5051391;28;20052;-36
2023/03/20 10:07:13;;;;;;;18.42;10.45;;;12.00;99.90;;;;;;5051239;28;20087;-35
2023/03/20 10:09:40;;;;;;;20.60;10.77;;;12.00;99.90;;;;;;5049991;28;20059;-35
2023/03/20 10:12:17;;;;;;;19.67;10.18;;;11.90;99.90;;;;;;5064941;28;20048;-36
2023/03/20 10:14:51;;;;;;;17.95;10.45;;;12.00;99.90;;;;;;5071256;28;20051;-36
2023/03/20 10:17:27;;;;;;;24.83;10.07;;;11.90;99.90;;;;;;5071196;28;20044;-36
2023/03/20 10:19:57;;;;;;;24.33;9.63;;;11.90;99.90;;;;;;5056233;28;20422;-36
2023/03/20 10:22:25;;;;;;;22.55;10.20;;;11.80;99.90;;;;;;5051008;28;20056;-36
2023/03/20 10:24:55;;;;;;;17.25;9.55;;;11.80;99.90;;;;;;5050939;28;20523;-35
2023/03/20 10:27:23;;;;;;;24.70;10.70;;;11.70;99.90;;;;;;5050129;28;20048;-35
2023/03/20 10:29:58;;;;;;;17.15;9.57;;;11.70;99.90;;;;;;5061387;28;20055;-35
2023/03/20 10:32:26;;;;;;;24.45;10.80;;;11.60;99.90;;;;;;5070992;28;20084;-35
2023/03/20 10:35:01;;;;;;;19.10;10.23;;;11.50;99.90;;;;;;5069744;28;20553;-35
2023/03/20 10:37:34;;;;;;;20.50;9.35;;;11.50;99.90;;;;;;5070087;28;20496;-35
2023/03/20 10:40:09;;;;;;;25.30;10.65;;;11.50;99.90;;;;;;5056958;28;20110;-35
2023/03/20 10:42:38;;;;;;;19.13;9.65;;;11.40;99.90;;;;;;5049971;28;20135;-35
2023/03/20 10:45:11;;;;;;;25.20;9.93;;;11.40;99.90;;;;;;5050777;28;20049;-35
2023/03/20 10:47:38;;;;;;;22.88;10.45;;;11.40;99.90;;;;;;5049724;28;20087;-35
2023/03/20 10:50:06;;;;;;;18.27;9.80;;;11.40;99.90;;;;;;5049597;28;20059;-36
2023/03/20 10:52:35;;;;;;;20.83;9.95;;;11.40;99.90;;;;;;5049210;28;20428;-36
2023/03/20 10:55:05;;;;;;;20.85;9.93;;;11.50;99.90;;;;;;5050598;28;20500;-35
2023/03/20 10:57:33;;;;;;;25.77;9.23;;;11.50;99.90;;;;;;5049605;28;20049;-36
2023/03/20 11:00:00;;;;;;;17.67;9.77;;;11.60;99.90;;;;;;5053908;28;20149;-35
2023/03/20 11:02:30;;;;;;;19.38;9.30;;;11.60;99.90;;;;;;5070119;28;20155;-35
2023/03/20 11:04:57;;;;;;;19.33;9.07;;;11.60;99.90;;;;;;5070080;28;20128;-35
2023/03/20 11:07:25;;;;;;;19.90;10.80;;;11.60;99.90;;;;;;5050863;28;20045;-35
2023/03/20 11:10:09;;;;;;;24.23;9.38;;;11.60;99.90;;;;;;5049017;28;20458;-35
2023/03/20 11:12:36;;;;;;;22.98;9.38;;;11.60;99.90;;;;;;5047685;28;20136;-34
2023/03/20 11:15:14;;;;;;;19.85;8.50;;;11.50;99.90;;;;;;5065631;28;20080;-34
2023/03/20 11:17:42;;;;;;;14.43;8.07;;;11.50;99.90;;;;;;5050307;28;20138;-34
2023/03/20 11:20:13;;;;;;;16.75;7.50;;;11.50;99.90;;;;;;5047629;28;20060;-35
2023/03/20 11:22:40;;;;;;;13.18;7.18;;;11.40;99.90;;;;;;5050208;28;20084;-34
2023/03/20 11:25:20;;;;;;;13.73;7.30;;;11.40;99.90;;;;;;5050000;28;20076;-37
2023/03/20 11:27:47;;;;;;;16.05;7.75;;;11.40;99.90;;;;;;5050250;28;20057;-34
2023/03/20 11:30:16;;;;;;;13.35;7.13;;;11.40;99.90;;;;;;5047658;28;20067;-34
2023/03/20 11:32:46;;;;;;;19.77;6.70;;;11.30;99.90;;;;;;5048966;28;20045;-35
2023/03/20 11:35:21;;;;;;;14.55;6.78;;;11.40;99.90;;;;;;5048014;28;20110;-35
2023/03/20 11:37:49;;;;;;;17.05;7.03;;;11.40;99.90;;;;;;5048841;28;20063;-34
2023/03/20 11:40:17;;;;;;;16.83;7.93;;;11.40;99.90;;;;;;5048581;28;20476;-34
2023/03/20 11:42:52;;;;;;;18.20;7.47;;;11.50;99.90;;;;;;5048956;28;20099;-35
2023/03/20 11:45:19;;;;;;;18.30;7.00;;;11.50;99.90;;;;;;5047875;28;20492;-34
2023/03/20 11:47:50;;;;;;;21.90;6.90;;;11.50;99.90;;;;;;5049019;28;20310;-33
2023/03/20 11:50:26;;;;;;;14.45;6.88;;;11.60;99.90;;;;;;5050089;28;20132;-33
2023/03/20 11:52:52;;;;;;;15.48;6.25;;;11.60;99.90;;;;;;5048777;28;20384;-34
2023/03/20 11:55:24;;;;;;;13.48;5.13;;;11.60;99.90;;;;;;5058532;28;20049;-34
2023/03/20 11:57:51;;;;;;;12.55;5.20;;;11.50;99.90;;;;;;5045547;28;20102;-34
2023/03/20 12:00:19;;;;;;;15.40;4.88;;;11.50;99.90;;;;;;5050717;28;20048;-34
2023/03/20 12:02:46;;;;;;;12.73;5.32;;;11.60;99.90;;;;;;5055674;28;20559;-35
2023/03/20 12:05:28;;;;;;;14.45;4.50;;;11.60;99.90;;;;;;5061717;28;20044;-34
2023/03/20 12:07:57;;;;;;;14.52;4.72;;;11.60;99.90;;;;;;5057026;28;20056;-35
2023/03/20 12:10:24;;;;;;;12.27;3.90;;;11.60;99.90;;;;;;5059367;28;20136;-34
2023/03/20 12:12:52;;;;;;;13.52;4.07;;;11.50;99.90;;;;;;5061267;28;20488;-34
2023/03/20 12:15:22;;;;;;;10.50;4.07;;;11.40;99.90;;;;;;5073374;28;20106;-34
2023/03/20 12:17:53;;;;;;;13.25;4.32;;;11.40;99.90;;;;;;5060662;28;20099;-35
2023/03/20 12:20:27;;;;;;;8.38;3.30;;;11.30;99.90;;;;;;5051339;28;20400;-35
2023/03/20 12:22:59;;;;;;;7.65;3.90;;;11.20;99.90;;;;;;5052330;28;20053;-34
2023/03/20 12:25:27;;;;;;;11.48;4.93;;;11.10;99.90;;;;;;5068255;28;20477;-34
2023/03/20 12:27:57;;;;;;;12.95;4.72;;;11.10;99.90;;;;;;5053551;28;20057;-34
2023/03/20 12:30:29;;;;;;;11.88;4.95;;;11.20;99.90;;;;;;5052160;28;20091;-35
2023/03/20 12:32:59;;;;;;;17.13;5.22;;;11.20;99.90;;;;;;5039597;28;20455;-35
2023/03/20 12:35:29;;;;;;;12.02;5.22;;;11.10;99.90;;;;;;5066395;28;20044;-35
2023/03/20 12:37:55;;;;;;;12.50;4.90;;;11.10;99.90;;;;;;5072691;28;20084;-35
2023/03/20 12:40:24;;;;;;;10.55;4.78;;;11.10;99.90;;;;;;5071118;28;20468;-35
2023/03/20 12:42:58;;;;;;;14.77;5.03;;;11.20;99.90;;;;;;5073756;28;20052;-35
2023/03/20 12:45:25;;;;;;;8.90;4.63;;;11.20;99.90;;;;;;5073673;28;20052;-35